createdAt,value
2023-01-03T00:01:55.414Z,100.00
2023-01-03T00:04:23.177Z,100.00
2023-01-03T00:06:52.787Z,100.00
2023-01-03T00:09:22.619Z,100.00
2023-01-03T00:12:10.951Z,100.00
2023-01-03T00:14:41.622Z,100.00
2023-01-03T00:17:10.381Z,100.00
2023-01-03T00:19:40.048Z,100.00
2023-01-03T00:22:08.193Z,100.00
2023-01-03T00:24:35.969Z,100.00
2023-01-03T00:27:06.002Z,100.00
2023-01-03T00:29:34.054Z,100.00
2023-01-03T00:32:02.172Z,100.00
2023-01-03T00:34:30.000Z,100.00
2023-01-03T00:36:57.914Z,100.00
2023-01-03T00:39:26.206Z,100.00
2023-01-03T00:41:53.716Z,100.00
2023-01-03T00:44:22.965Z,100.00
2023-01-03T00:46:50.703Z,100.00
2023-01-03T00:49:18.441Z,100.00
2023-01-03T00:51:46.357Z,100.00
2023-01-03T00:54:15.778Z,100.00
2023-01-03T00:56:45.315Z,100.00
2023-01-03T00:59:14.402Z,100.00
2023-01-03T01:01:47.780Z,100.00
2023-01-03T01:04:18.534Z,100.00
2023-01-03T01:06:48.534Z,100.00
2023-01-03T01:09:20.688Z,100.00
2023-01-03T01:11:49.228Z,100.00
2023-01-03T01:14:20.914Z,100.00
2023-01-03T01:16:52.726Z,100.00
2023-01-03T01:19:23.314Z,100.00
2023-01-03T01:21:51.032Z,100.00
2023-01-03T01:24:18.891Z,100.00
2023-01-03T01:26:46.712Z,100.00
2023-01-03T01:29:15.487Z,100.00
2023-01-03T01:31:43.978Z,100.00
2023-01-03T01:34:13.547Z,100.00
2023-01-03T01:36:42.937Z,100.00
2023-01-03T01:39:13.421Z,100.00
2023-01-03T01:41:59.445Z,100.00
2023-01-03T01:44:55.866Z,100.00
2023-01-03T01:47:36.827Z,100.00
2023-01-03T01:50:17.548Z,100.00
2023-01-03T01:52:49.057Z,100.00
2023-01-03T01:55:21.501Z,100.00
2023-01-03T01:57:49.669Z,100.00
2023-01-03T02:00:17.736Z,100.00
2023-01-03T02:02:47.703Z,100.00
2023-01-03T02:05:19.261Z,100.00
2023-01-03T02:07:49.785Z,100.00
2023-01-03T02:10:19.034Z,100.00
2023-01-03T02:13:08.299Z,100.00
2023-01-03T02:15:54.084Z,100.00
2023-01-03T02:18:43.911Z,100.00
2023-01-03T02:21:38.291Z,100.00
2023-01-03T02:24:32.075Z,100.00
2023-01-03T02:27:07.485Z,100.00
2023-01-03T02:30:08.247Z,100.00
2023-01-03T02:32:43.587Z,100.00
2023-01-03T02:35:19.575Z,100.00
2023-01-03T02:37:56.023Z,100.00
2023-01-03T02:40:29.856Z,100.00
2023-01-03T02:43:05.953Z,100.00
2023-01-03T02:45:48.738Z,100.00
2023-01-03T02:48:25.568Z,100.00
2023-01-03T02:50:57.698Z,100.00
2023-01-03T02:53:30.453Z,100.00
2023-01-03T02:56:02.936Z,100.00
2023-01-03T02:58:35.085Z,100.00
2023-01-03T03:01:07.294Z,100.00
2023-01-03T03:03:38.699Z,100.00
2023-01-03T03:06:13.022Z,100.00
2023-01-03T03:08:40.797Z,100.00
2023-01-03T03:11:25.963Z,100.00
2023-01-03T03:13:59.339Z,100.00
2023-01-03T03:16:49.039Z,100.00
2023-01-03T03:19:42.806Z,100.00
2023-01-03T03:22:35.113Z,100.00
2023-01-03T03:25:08.726Z,100.00
2023-01-03T03:27:55.598Z,100.00
2023-01-03T03:30:24.915Z,100.00
2023-01-03T03:32:57.692Z,100.00
2023-01-03T03:35:27.267Z,100.00
2023-01-03T03:37:58.426Z,100.00
2023-01-03T03:40:47.367Z,100.00
2023-01-03T03:43:44.654Z,100.00
2023-01-03T03:46:21.620Z,100.00
2023-01-03T03:49:16.725Z,100.00
2023-01-03T03:51:48.017Z,100.00
2023-01-03T03:54:20.880Z,100.00
2023-01-03T03:56:53.935Z,100.00
2023-01-03T03:59:24.735Z,100.00
2023-01-03T04:01:54.817Z,100.00
2023-01-03T04:04:28.988Z,100.00
2023-01-03T04:06:56.772Z,100.00
2023-01-03T04:09:24.491Z,100.00
2023-01-03T04:11:52.124Z,100.00
2023-01-03T04:14:19.951Z,100.00
2023-01-03T04:16:47.671Z,100.00
2023-01-03T04:19:15.443Z,100.00
2023-01-03T04:21:44.514Z,100.00
2023-01-03T04:24:12.363Z,100.00
2023-01-03T04:26:40.061Z,100.00
2023-01-03T04:29:07.789Z,100.00
2023-01-03T04:31:35.482Z,100.00
2023-01-03T04:34:03.375Z,100.00
2023-01-03T04:36:31.119Z,100.00
2023-01-03T04:39:00.225Z,100.00
2023-01-03T04:41:27.953Z,100.00
2023-01-03T04:44:04.450Z,100.00
2023-01-03T04:46:34.843Z,100.00
2023-01-03T04:49:03.179Z,100.00
2023-01-03T04:51:31.646Z,100.00
2023-01-03T04:54:00.703Z,100.00
2023-01-03T04:56:29.850Z,100.00
2023-01-03T04:58:58.816Z,100.00
2023-01-03T05:01:27.219Z,100.00
2023-01-03T05:03:58.953Z,100.00
2023-01-03T05:06:27.607Z,100.00
2023-01-03T05:08:55.717Z,100.00
2023-01-03T05:11:25.314Z,100.00
2023-01-03T05:13:53.007Z,100.00
2023-01-03T05:16:20.770Z,100.00
2023-01-03T05:18:49.279Z,100.00
2023-01-03T05:21:36.344Z,100.00
2023-01-03T05:24:22.060Z,100.00
2023-01-03T05:26:52.140Z,100.00
2023-01-03T05:29:21.982Z,100.00
2023-01-03T05:31:50.498Z,100.00
2023-01-03T05:34:18.302Z,100.00
2023-01-03T05:36:46.017Z,100.00
2023-01-03T05:39:13.976Z,100.00
2023-01-03T05:41:59.010Z,100.00
2023-01-03T05:44:28.075Z,100.00
2023-01-03T05:46:55.760Z,100.00
2023-01-03T05:49:23.448Z,100.00
2023-01-03T05:51:51.159Z,100.00
2023-01-03T05:54:21.193Z,100.00
2023-01-03T05:56:50.524Z,100.00
2023-01-03T05:59:18.189Z,100.00
2023-01-03T06:01:47.372Z,100.00
2023-01-03T06:04:15.317Z,100.00
2023-01-03T06:06:43.015Z,100.00
2023-01-03T06:09:10.785Z,100.00
2023-01-03T06:11:40.017Z,100.00
2023-01-03T06:14:08.031Z,100.00
2023-01-03T06:16:53.315Z,100.00
2023-01-03T06:19:22.443Z,100.00
2023-01-03T06:21:50.166Z,100.00
2023-01-03T06:24:17.883Z,100.00
2023-01-03T06:26:45.603Z,100.00
2023-01-03T06:29:13.310Z,100.00
2023-01-03T06:31:41.655Z,100.00
2023-01-03T06:34:09.362Z,100.00
2023-01-03T06:36:38.419Z,100.00
2023-01-03T06:39:06.099Z,100.00
2023-01-03T06:41:33.817Z,100.00
2023-01-03T06:44:01.531Z,100.00
2023-01-03T06:46:47.000Z,100.00
2023-01-03T06:49:33.990Z,100.00
2023-01-03T06:52:21.283Z,100.00
2023-01-03T06:54:49.484Z,100.00
2023-01-03T06:57:26.423Z,100.00
2023-01-03T06:59:55.398Z,100.00
2023-01-03T07:02:23.190Z,100.00
2023-01-03T07:04:51.164Z,100.00
2023-01-03T07:07:20.270Z,100.00
2023-01-03T07:09:47.955Z,100.00
2023-01-03T07:12:37.013Z,100.00
2023-01-03T07:15:05.683Z,100.00
2023-01-03T07:17:33.417Z,100.00
2023-01-03T07:20:01.194Z,100.00
2023-01-03T07:22:30.257Z,100.00
2023-01-03T07:24:57.915Z,100.00
2023-01-03T07:27:25.638Z,100.00
2023-01-03T07:29:53.283Z,100.00
2023-01-03T07:32:20.940Z,100.00
2023-01-03T07:34:48.640Z,100.00
2023-01-03T07:37:16.294Z,100.00
2023-01-03T07:39:45.345Z,100.00
2023-01-03T07:42:30.418Z,100.00
2023-01-03T07:44:59.205Z,100.00
2023-01-03T07:47:26.849Z,100.00
2023-01-03T07:49:54.567Z,100.00
2023-01-03T07:52:22.265Z,100.00
2023-01-03T07:54:51.455Z,100.00
2023-01-03T07:57:19.161Z,100.00
2023-01-03T07:59:46.919Z,100.00
2023-01-03T08:02:14.741Z,100.00
2023-01-03T08:04:42.542Z,100.00
2023-01-03T08:07:10.300Z,100.00
2023-01-03T08:09:55.660Z,100.00
2023-01-03T08:12:42.400Z,100.00
2023-01-03T08:15:10.704Z,100.00
2023-01-03T08:17:38.448Z,100.00
2023-01-03T08:20:07.441Z,100.00
2023-01-03T08:22:35.130Z,100.00
2023-01-03T08:25:02.800Z,100.00
2023-01-03T08:27:31.874Z,100.00
2023-01-03T08:29:59.565Z,100.00
2023-01-03T08:32:27.543Z,100.00
2023-01-03T08:34:55.304Z,100.00
2023-01-03T08:37:23.244Z,100.00
2023-01-03T08:39:58.008Z,100.00
2023-01-03T08:42:26.449Z,100.00
2023-01-03T08:44:59.406Z,100.00
2023-01-03T08:47:27.775Z,100.00
2023-01-03T08:49:55.694Z,100.00
2023-01-03T08:52:23.481Z,100.00
2023-01-03T08:54:51.196Z,100.00
2023-01-03T08:57:18.907Z,100.00
2023-01-03T08:59:46.609Z,100.00
2023-01-03T09:02:15.917Z,100.00
2023-01-03T09:04:43.723Z,100.00
2023-01-03T09:07:12.202Z,100.00
2023-01-03T09:09:39.867Z,100.00
2023-01-03T09:12:07.658Z,100.00
2023-01-03T09:14:35.339Z,100.00
2023-01-03T09:17:03.048Z,100.00
2023-01-03T09:19:32.063Z,100.00
2023-01-03T09:21:59.778Z,100.00
2023-01-03T09:24:27.471Z,100.00
2023-01-03T09:26:55.353Z,100.00
2023-01-03T09:29:23.577Z,100.00
2023-01-03T09:31:51.923Z,100.00
2023-01-03T09:34:19.824Z,100.00
2023-01-03T09:36:49.048Z,100.00
2023-01-03T09:39:16.750Z,100.00
2023-01-03T09:41:45.143Z,100.00
2023-01-03T09:44:12.950Z,100.00
2023-01-03T09:46:41.084Z,100.00
2023-01-03T09:49:08.869Z,100.00
2023-01-03T09:51:58.089Z,100.00
2023-01-03T09:54:48.794Z,100.00
2023-01-03T09:57:40.932Z,100.00
2023-01-03T10:00:31.534Z,100.00
2023-01-03T10:03:32.679Z,100.00
2023-01-03T10:06:12.146Z,100.00
2023-01-03T10:08:49.338Z,100.00
2023-01-03T10:11:27.037Z,100.00
2023-01-03T10:14:06.490Z,100.00
2023-01-03T10:16:47.974Z,100.00
2023-01-03T10:19:48.857Z,100.00
2023-01-03T10:22:19.143Z,100.00
2023-01-03T10:24:50.196Z,100.00
2023-01-03T10:27:22.423Z,100.00
2023-01-03T10:29:53.170Z,100.00
2023-01-03T10:32:47.548Z,100.00
2023-01-03T10:35:21.316Z,100.00
2023-01-03T10:37:51.519Z,100.00
2023-01-03T10:40:19.622Z,100.00
2023-01-03T10:42:50.416Z,100.00
2023-01-03T10:45:21.357Z,100.00
2023-01-03T10:47:59.164Z,100.00
2023-01-03T10:50:27.354Z,100.00
2023-01-03T10:52:59.142Z,100.00
2023-01-03T10:55:28.201Z,100.00
2023-01-03T10:58:03.431Z,100.00
2023-01-03T11:00:33.604Z,100.00
2023-01-03T11:03:16.824Z,100.00
2023-01-03T11:05:46.704Z,100.00
2023-01-03T11:08:21.021Z,100.00
2023-01-03T11:11:06.727Z,100.00
2023-01-03T11:13:39.700Z,100.00
2023-01-03T11:16:15.554Z,100.00
2023-01-03T11:19:01.696Z,100.00
2023-01-03T11:21:36.797Z,100.00
2023-01-03T11:24:14.652Z,100.00
2023-01-03T11:26:49.955Z,100.00
2023-01-03T11:29:32.846Z,100.00
2023-01-03T11:32:13.423Z,100.00
2023-01-03T11:35:24.322Z,100.00
2023-01-03T11:38:03.290Z,100.00
2023-01-03T11:40:42.555Z,100.00
2023-01-03T11:43:22.115Z,100.00
2023-01-03T11:46:07.327Z,100.00
2023-01-03T11:48:48.785Z,100.00
2023-01-03T11:51:24.253Z,100.00
2023-01-03T11:54:03.081Z,100.00
2023-01-03T11:56:35.070Z,100.00
2023-01-03T11:59:31.075Z,100.00
2023-01-03T12:02:37.271Z,100.00
2023-01-03T12:05:28.070Z,100.00
2023-01-03T12:08:02.161Z,100.00
2023-01-03T12:10:45.772Z,100.00
2023-01-03T12:13:29.408Z,100.00
2023-01-03T12:16:03.492Z,100.00
2023-01-03T12:18:42.304Z,100.00
2023-01-03T12:21:17.135Z,100.00
2023-01-03T12:23:48.339Z,100.00
2023-01-03T12:26:17.379Z,100.00
2023-01-03T12:28:50.257Z,100.00
2023-01-03T12:31:31.244Z,100.00
2023-01-03T12:34:08.310Z,100.00
2023-01-03T12:36:45.380Z,100.00
2023-01-03T12:39:36.144Z,100.00
2023-01-03T12:42:11.763Z,100.00
2023-01-03T12:44:42.327Z,100.00
2023-01-03T12:47:22.362Z,100.00
2023-01-03T12:49:57.908Z,100.00
2023-01-03T12:52:28.788Z,100.00
2023-01-03T12:55:03.010Z,100.00
2023-01-03T12:57:57.055Z,100.00
2023-01-03T13:00:40.309Z,100.00
2023-01-03T13:03:17.642Z,100.00
2023-01-03T13:05:50.354Z,100.00
2023-01-03T13:08:30.007Z,100.00
2023-01-03T13:11:02.437Z,99.85
2023-01-03T13:13:30.655Z,99.41
2023-01-03T13:15:58.205Z,98.64
2023-01-03T13:18:35.377Z,99.32
2023-01-03T13:21:23.278Z,97.74
2023-01-03T13:24:01.748Z,98.20
2023-01-03T13:26:30.341Z,99.17
2023-01-03T13:29:36.857Z,99.15
2023-01-03T13:32:05.590Z,98.71
2023-01-03T13:34:35.742Z,98.88
2023-01-03T13:37:22.694Z,98.51
2023-01-03T13:40:04.107Z,97.37
2023-01-03T13:42:37.709Z,97.70
2023-01-03T13:45:56.315Z,97.89
2023-01-03T13:48:27.088Z,97.80
2023-01-03T13:51:26.515Z,97.02
2023-01-03T13:53:58.645Z,97.92
2023-01-03T13:56:30.100Z,97.39
2023-01-03T13:59:08.767Z,96.93
2023-01-03T14:01:50.227Z,96.33
2023-01-03T14:04:36.242Z,96.60
2023-01-03T14:07:19.467Z,97.07
2023-01-03T14:10:11.811Z,94.91
2023-01-03T14:13:23.703Z,95.26
2023-01-03T14:16:13.784Z,95.67
2023-01-03T14:18:47.044Z,96.67
2023-01-03T14:21:26.044Z,96.18
2023-01-03T14:24:01.174Z,96.30
2023-01-03T14:26:32.593Z,96.63
2023-01-03T14:29:01.821Z,96.68
2023-01-03T14:31:29.856Z,95.78
2023-01-03T14:34:00.355Z,96.44
2023-01-03T14:36:28.885Z,95.27
2023-01-03T14:38:58.889Z,95.62
2023-01-03T14:41:29.506Z,96.36
2023-01-03T14:44:03.897Z,96.15
2023-01-03T14:46:33.061Z,96.11
2023-01-03T14:49:03.920Z,97.12
2023-01-03T14:51:33.156Z,96.46
2023-01-03T14:54:01.603Z,94.20
2023-01-03T14:56:31.503Z,95.80
2023-01-03T14:58:59.861Z,95.83
2023-01-03T15:01:30.053Z,97.04
2023-01-03T15:03:58.541Z,96.45
2023-01-03T15:06:29.793Z,96.63
2023-01-03T15:08:59.537Z,97.22
2023-01-03T15:11:33.110Z,97.02
2023-01-03T15:14:04.230Z,96.50
2023-01-03T15:16:35.712Z,96.42
2023-01-03T15:19:09.825Z,96.74
2023-01-03T15:21:37.499Z,95.85
2023-01-03T15:24:06.183Z,96.53
2023-01-03T15:26:40.041Z,96.12
2023-01-03T15:29:14.220Z,95.94
2023-01-03T15:31:51.970Z,95.92
2023-01-03T15:34:21.958Z,95.58
2023-01-03T15:36:56.561Z,97.34
2023-01-03T15:39:27.077Z,95.93
2023-01-03T15:42:43.555Z,96.50
2023-01-03T15:45:10.189Z,97.02
2023-01-03T15:47:40.371Z,96.24
2023-01-03T15:50:14.058Z,96.96
2023-01-03T15:52:42.001Z,96.87
2023-01-03T15:55:13.590Z,96.98
2023-01-03T15:57:41.563Z,96.70
2023-01-03T16:00:17.124Z,97.75
2023-01-03T16:02:46.630Z,97.13
2023-01-03T16:05:21.605Z,96.64
2023-01-03T16:07:50.527Z,96.57
2023-01-03T16:10:18.571Z,97.37
2023-01-03T16:12:46.741Z,97.02
2023-01-03T16:15:26.865Z,96.88
2023-01-03T16:17:55.906Z,96.78
2023-01-03T16:20:23.652Z,97.19
2023-01-03T16:23:01.002Z,97.54
2023-01-03T16:25:29.856Z,97.18
2023-01-03T16:27:57.527Z,96.55
2023-01-03T16:30:25.471Z,96.66
2023-01-03T16:32:53.337Z,95.99
2023-01-03T16:35:22.561Z,96.79
2023-01-03T16:37:50.394Z,96.15
2023-01-03T16:40:20.132Z,97.18
2023-01-03T16:42:47.925Z,96.91
2023-01-03T16:45:16.291Z,96.38
2023-01-03T16:47:44.933Z,96.52
2023-01-03T16:50:16.322Z,96.56
2023-01-03T16:52:48.606Z,96.91
2023-01-03T16:55:18.919Z,95.61
2023-01-03T16:57:52.073Z,95.38
2023-01-03T17:00:23.609Z,96.52
2023-01-03T17:02:51.505Z,96.28
2023-01-03T17:05:19.757Z,96.21
2023-01-03T17:07:51.959Z,95.66
2023-01-03T17:10:27.452Z,95.94
2023-01-03T17:12:55.685Z,96.28
2023-01-03T17:15:23.237Z,93.51
2023-01-03T17:17:51.152Z,94.63
2023-01-03T17:20:20.273Z,96.22
2023-01-03T17:22:52.337Z,95.52
2023-01-03T17:25:20.195Z,94.43
2023-01-03T17:27:51.086Z,95.67
2023-01-03T17:30:22.050Z,95.36
2023-01-03T17:32:49.797Z,95.48
2023-01-03T17:35:17.936Z,95.53
2023-01-03T17:38:23.399Z,95.10
2023-01-03T17:40:35.259Z,92.63
2023-01-03T17:43:03.470Z,94.40
2023-01-03T17:45:48.678Z,92.75
2023-01-03T17:48:33.898Z,92.73
2023-01-03T17:51:02.107Z,94.20
2023-01-03T17:53:30.610Z,92.99
2023-01-03T17:55:59.739Z,94.14
2023-01-03T17:58:32.425Z,93.63
2023-01-03T18:01:00.419Z,93.82
2023-01-03T18:03:29.111Z,93.88
2023-01-03T18:05:57.446Z,94.07
2023-01-03T18:08:26.186Z,94.14
2023-01-03T18:10:54.463Z,94.33
2023-01-03T18:13:26.705Z,94.00
2023-01-03T18:15:55.914Z,94.19
2023-01-03T18:18:26.005Z,94.26
2023-01-03T18:20:54.490Z,93.80
2023-01-03T18:23:26.935Z,93.08
2023-01-03T18:25:55.506Z,94.24
2023-01-03T18:28:27.687Z,94.24
2023-01-03T18:30:55.437Z,92.51
2023-01-03T18:33:23.540Z,95.03
2023-01-03T18:35:52.634Z,94.11
2023-01-03T18:38:26.418Z,94.08
2023-01-03T18:41:02.198Z,94.79
2023-01-03T18:43:33.869Z,95.00
2023-01-03T18:46:01.692Z,94.25
2023-01-03T18:48:29.415Z,92.54
2023-01-03T18:50:59.423Z,92.92
2023-01-03T18:53:32.170Z,94.07
2023-01-03T18:56:00.263Z,94.01
2023-01-03T18:58:35.046Z,93.71
2023-01-03T19:01:03.134Z,93.62
2023-01-03T19:03:32.910Z,92.83
2023-01-03T19:06:02.276Z,93.17
2023-01-03T19:08:33.430Z,93.91
2023-01-03T19:11:08.522Z,92.90
2023-01-03T19:13:51.312Z,93.48
2023-01-03T19:16:21.026Z,93.08
2023-01-03T19:18:49.722Z,94.31
2023-01-03T19:21:19.009Z,94.01
2023-01-03T19:23:48.957Z,93.09
2023-01-03T19:26:26.928Z,92.30
2023-01-03T19:28:58.759Z,93.57
2023-01-03T19:31:27.957Z,93.34
2023-01-03T19:33:55.869Z,90.92
2023-01-03T19:36:23.766Z,93.68
2023-01-03T19:38:51.531Z,93.27
2023-01-03T19:41:21.836Z,92.96
2023-01-03T19:43:50.477Z,92.26
2023-01-03T19:46:19.846Z,93.06
2023-01-03T19:48:47.640Z,92.27
2023-01-03T19:51:15.370Z,92.33
2023-01-03T19:53:43.153Z,92.33
2023-01-03T19:56:22.540Z,92.54
2023-01-03T19:58:50.964Z,92.17
2023-01-03T20:01:20.794Z,92.93
2023-01-03T20:03:48.998Z,91.37
2023-01-03T20:06:19.410Z,92.23
2023-01-03T20:08:48.162Z,92.32
2023-01-03T20:11:18.432Z,92.24
2023-01-03T20:13:47.206Z,91.95
2023-01-03T20:16:15.887Z,92.49
2023-01-03T20:18:45.058Z,93.28
2023-01-03T20:21:22.339Z,92.27
2023-01-03T20:23:53.497Z,92.47
2023-01-03T20:26:24.502Z,93.08
2023-01-03T20:28:54.067Z,92.59
2023-01-03T20:31:21.919Z,93.06
2023-01-03T20:33:52.110Z,91.96
2023-01-03T20:36:23.405Z,92.79
2023-01-03T20:38:54.169Z,91.89
2023-01-03T20:41:36.101Z,91.97
2023-01-03T20:44:05.110Z,93.28
2023-01-03T20:46:32.976Z,93.04
2023-01-03T20:49:04.280Z,92.11
2023-01-03T20:51:32.331Z,92.59
2023-01-03T20:54:00.078Z,90.77
2023-01-03T20:56:28.085Z,92.09
2023-01-03T20:58:55.792Z,92.20
2023-01-03T21:01:23.681Z,91.48
2023-01-03T21:03:51.484Z,91.79
2023-01-03T21:06:22.698Z,93.16
2023-01-03T21:08:56.697Z,92.63
2023-01-03T21:11:26.322Z,93.04
2023-01-03T21:13:54.546Z,91.03
2023-01-03T21:16:32.517Z,91.61
2023-01-03T21:19:05.966Z,91.84
2023-01-03T21:21:35.867Z,92.34
2023-01-03T21:24:04.199Z,92.13
2023-01-03T21:26:32.214Z,91.79
2023-01-03T21:29:00.003Z,92.49
2023-01-03T21:31:28.302Z,91.58
2023-01-03T21:33:56.159Z,92.34
2023-01-03T21:36:26.604Z,91.87
2023-01-03T21:38:56.441Z,92.47
2023-01-03T21:41:26.742Z,91.25
2023-01-03T21:43:55.914Z,91.43
2023-01-03T21:46:24.272Z,92.78
2023-01-03T21:48:52.471Z,92.03
2023-01-03T21:51:33.150Z,90.62
2023-01-03T21:54:07.632Z,91.67
2023-01-03T21:56:37.460Z,91.83
2023-01-03T21:59:05.434Z,91.54
2023-01-03T22:01:53.117Z,92.14
2023-01-03T22:04:19.880Z,91.89
2023-01-03T22:06:47.854Z,91.97
2023-01-03T22:09:30.874Z,90.21
2023-01-03T22:11:58.534Z,91.83
2023-01-03T22:14:26.218Z,91.72
2023-01-03T22:16:53.979Z,92.13
2023-01-03T22:19:21.710Z,91.74
2023-01-03T22:21:49.606Z,91.03
2023-01-03T22:24:18.618Z,91.68
2023-01-03T22:26:46.308Z,91.19
2023-01-03T22:29:13.968Z,90.91
2023-01-03T22:31:41.765Z,91.79
2023-01-03T22:34:09.473Z,92.00
2023-01-03T22:36:37.153Z,91.26
2023-01-03T22:39:05.147Z,92.51
2023-01-03T22:41:34.245Z,92.84
2023-01-03T22:44:01.939Z,92.14
2023-01-03T22:46:29.695Z,92.05
2023-01-03T22:48:57.442Z,91.41
2023-01-03T22:51:25.122Z,91.88
2023-01-03T22:53:52.788Z,90.98
2023-01-03T22:56:20.447Z,91.33
2023-01-03T22:58:49.524Z,91.75
2023-01-03T23:01:19.737Z,91.87
2023-01-03T23:03:48.288Z,92.08
2023-01-03T23:06:18.414Z,91.29
2023-01-03T23:08:51.067Z,91.82
2023-01-03T23:11:34.940Z,92.94
2023-01-03T23:14:05.987Z,92.79
2023-01-03T23:16:33.850Z,92.86
2023-01-03T23:19:03.905Z,94.15
2023-01-03T23:21:31.611Z,94.35
2023-01-03T23:23:59.346Z,94.92
2023-01-03T23:26:27.534Z,95.25
2023-01-03T23:28:55.262Z,95.40
2023-01-03T23:31:24.756Z,95.81
2023-01-03T23:33:54.590Z,95.61
2023-01-03T23:36:22.244Z,95.90
2023-01-03T23:38:49.961Z,96.37
2023-01-03T23:41:18.146Z,96.92
2023-01-03T23:43:45.639Z,97.11
2023-01-03T23:46:16.279Z,97.42
2023-01-03T23:48:45.535Z,97.77
2023-01-03T23:51:14.133Z,97.81
2023-01-03T23:53:44.284Z,98.20
2023-01-03T23:56:15.339Z,98.50
2023-01-03T23:58:43.383Z,99.09
